Time;durP1;ratioP1;P1;durP2;ratioP2;P2;SDS_P1;SDS_P2;PMS_P1;PMS_P2;Temp;Humidity;BMP_temperature;BMP_pressure;BME280_temperature;BME280_humidity;BME280_pressure;Samples;Min_cycle;Max_cycle;Signal;HPM_P1;HPM_P2
2023/10/13 00:01:23;;;;;;;9.07;4.82;;;;;;;;;;4929998;29;20442;-62
2023/10/13 00:03:52;;;;;;;12.18;5.00;;;;;;;;;;4920571;29;20494;-62
2023/10/13 00:06:22;;;;;;;10.13;5.00;;;;;;;;;;4908133;29;20744;-62
2023/10/13 00:08:50;;;;;;;9.90;5.03;;;;;;;;;;4920188;29;20432;-62
2023/10/13 00:11:18;;;;;;;6.53;4.32;;;;;;;;;;4918920;29;20431;-61
2023/10/13 00:13:52;;;;;;;9.80;5.03;;;;;;;;;;4926745;29;20956;-62
2023/10/13 00:16:28;;;;;;;11.82;4.95;;;;;;;;;;4921945;29;20435;-62
2023/10/13 00:18:57;;;;;;;10.23;4.40;;;;;;;;;;4925125;29;20796;-62
2023/10/13 00:21:31;;;;;;;7.47;4.70;;;;;;;;;;4918327;29;20440;-62
2023/10/13 00:24:05;;;;;;;8.67;5.00;;;;;;;;;;4919437;29;20447;-62
2023/10/13 00:26:36;;;;;;;10.15;5.05;;;;;;;;;;4919265;29;20439;-62
2023/10/13 00:31:37;;;;;;;12.80;4.80;;;;;;;;;;4922974;29;20441;-62
2023/10/13 00:37:15;;;;;;;10.32;4.57;;;;;;;;;;4927504;29;20439;-62
2023/10/13 00:39:44;;;;;;;9.45;4.50;;;;;;;;;;4925047;29;20538;-62
2023/10/13 00:42:19;;;;;;;9.23;4.43;;;;;;;;;;4923440;29;20467;-62
2023/10/13 00:44:50;;;;;;;13.35;4.82;;;;;;;;;;4926446;29;20447;-62
2023/10/13 00:50:20;;;;;;;12.38;4.70;;;;;;;;;;4848956;29;20565;-62
2023/10/13 00:52:50;;;;;;;8.40;4.73;;;;;;;;;;4846277;29;20656;-62
2023/10/13 00:55:22;;;;;;;9.00;4.80;;;;;;;;;;4850061;29;20454;-62
2023/10/13 00:57:57;;;;;;;10.27;4.63;;;;;;;;;;4850419;29;20481;-62
2023/10/13 01:00:28;;;;;;;11.15;5.10;;;;;;;;;;4851403;29;20474;-62
2023/10/13 01:03:05;;;;;;;8.65;4.53;;;;;;;;;;4849905;29;20466;-62
2023/10/13 01:05:33;;;;;;;7.03;4.45;;;;;;;;;;4850237;29;20446;-62
2023/10/13 01:08:03;;;;;;;17.35;5.13;;;;;;;;;;4850926;29;20478;-62
2023/10/13 01:10:32;;;;;;;10.02;4.57;;;;;;;;;;4850101;29;20517;-62
2023/10/13 01:13:02;;;;;;;10.50;4.73;;;;;;;;;;4851417;29;20956;-62
2023/10/13 01:15:32;;;;;;;8.43;4.50;;;;;;;;;;4849976;29;20456;-62
2023/10/13 01:18:13;;;;;;;9.38;4.43;;;;;;;;;;4851007;29;20618;-62
2023/10/13 01:20:53;;;;;;;16.08;5.45;;;;;;;;;;4848033;29;20951;-62
2023/10/13 01:23:28;;;;;;;10.95;5.00;;;;;;;;;;4838711;29;20597;-62
2023/10/13 01:25:56;;;;;;;8.85;4.28;;;;;;;;;;4919478;29;20522;-62
2023/10/13 01:28:24;;;;;;;12.03;4.47;;;;;;;;;;4918986;29;20525;-62
2023/10/13 01:30:54;;;;;;;11.50;4.50;;;;;;;;;;4919330;29;20981;-62
2023/10/13 01:33:28;;;;;;;8.65;4.53;;;;;;;;;;4927492;29;20518;-62
2023/10/13 01:35:58;;;;;;;9.65;4.70;;;;;;;;;;4920767;29;20518;-62
2023/10/13 01:38:27;;;;;;;10.05;4.38;;;;;;;;;;4921825;29;20446;-62
2023/10/13 01:40:56;;;;;;;7.13;4.37;;;;;;;;;;4919613;29;20466;-62
2023/10/13 01:43:24;;;;;;;12.02;4.75;;;;;;;;;;4926186;29;20443;-62
2023/10/13 01:45:51;;;;;;;9.70;4.57;;;;;;;;;;4924550;29;20462;-62
2023/10/13 01:48:21;;;;;;;8.70;4.53;;;;;;;;;;4928027;29;20537;-62
2023/10/13 01:50:55;;;;;;;9.10;4.72;;;;;;;;;;4924854;29;20875;-62
2023/10/13 01:53:23;;;;;;;13.13;5.05;;;;;;;;;;4926664;29;20431;-62
2023/10/13 01:55:50;;;;;;;7.38;4.32;;;;;;;;;;4920995;29;21117;-62
2023/10/13 01:58:22;;;;;;;10.10;4.43;;;;;;;;;;4921542;29;20502;-63
2023/10/13 02:00:50;;;;;;;10.35;4.88;;;;;;;;;;4920409;29;20532;-62
2023/10/13 02:03:21;;;;;;;8.35;4.85;;;;;;;;;;4915553;29;20446;-62
2023/10/13 02:05:49;;;;;;;11.25;4.82;;;;;;;;;;4913797;29;20512;-62
2023/10/13 02:08:21;;;;;;;8.85;5.13;;;;;;;;;;4917506;29;20448;-62
2023/10/13 02:10:49;;;;;;;10.50;4.70;;;;;;;;;;4909308;29;20468;-62
2023/10/13 02:13:19;;;;;;;9.38;4.47;;;;;;;;;;4917421;29;20446;-62
2023/10/13 02:15:48;;;;;;;11.15;5.25;;;;;;;;;;4920308;29;20440;-62
2023/10/13 02:18:41;;;;;;;8.57;5.43;;;;;;;;;;4919873;29;20446;-62
2023/10/13 02:21:12;;;;;;;10.35;5.20;;;;;;;;;;4924196;29;20830;-62
2023/10/13 02:23:59;;;;;;;12.15;5.68;;;;;;;;;;4921484;29;20499;-62
2023/10/13 02:26:30;;;;;;;11.45;6.03;;;;;;;;;;4901353;29;20441;-62
2023/10/13 02:28:58;;;;;;;10.75;5.15;;;;;;;;;;4895668;29;20456;-62
2023/10/13 02:31:27;;;;;;;10.43;5.65;;;;;;;;;;4924205;29;20445;-62
2023/10/13 02:33:55;;;;;;;9.15;5.03;;;;;;;;;;4918955;29;20491;-62
2023/10/13 02:36:23;;;;;;;10.18;5.43;;;;;;;;;;4921435;29;20440;-63
2023/10/13 02:38:52;;;;;;;11.47;5.10;;;;;;;;;;4927108;29;20435;-62
2023/10/13 02:41:29;;;;;;;13.75;5.32;;;;;;;;;;4923342;29;20449;-62
2023/10/13 02:43:56;;;;;;;12.02;5.60;;;;;;;;;;4913054;29;20508;-62
2023/10/13 02:46:29;;;;;;;11.38;5.43;;;;;;;;;;4916285;29;20448;-63
2023/10/13 02:48:58;;;;;;;10.35;5.43;;;;;;;;;;4899955;29;20453;-62
2023/10/13 02:51:31;;;;;;;11.80;6.20;;;;;;;;;;4921948;29;20442;-62
2023/10/13 02:54:02;;;;;;;14.95;6.88;;;;;;;;;;4923948;29;20444;-62
2023/10/13 02:56:30;;;;;;;15.63;5.93;;;;;;;;;;4921553;29;20491;-63
2023/10/13 02:58:57;;;;;;;13.18;5.90;;;;;;;;;;4925643;29;20453;-62
2023/10/13 03:01:28;;;;;;;9.93;6.05;;;;;;;;;;4924914;29;20526;-62
2023/10/13 03:03:58;;;;;;;11.32;5.88;;;;;;;;;;4927773;29;20831;-62
2023/10/13 03:06:32;;;;;;;8.98;5.55;;;;;;;;;;4927597;29;21081;-62
2023/10/13 03:09:14;;;;;;;8.65;5.60;;;;;;;;;;4926327;29;20475;-63
2023/10/13 03:11:47;;;;;;;10.40;5.80;;;;;;;;;;4922631;29;20783;-62
2023/10/13 03:14:28;;;;;;;12.15;5.82;;;;;;;;;;4927647;29;21155;-62
2023/10/13 03:17:02;;;;;;;11.20;6.20;;;;;;;;;;4918965;29;20521;-62
2023/10/13 03:19:32;;;;;;;11.00;6.25;;;;;;;;;;4912778;29;20441;-62
2023/10/13 03:24:55;;;;;;;10.38;5.90;;;;;;;;;;4916724;29;20456;-62
2023/10/13 03:27:40;;;;;;;12.25;5.70;;;;;;;;;;4915178;29;20476;-62
2023/10/13 03:30:14;;;;;;;10.50;5.57;;;;;;;;;;4923688;29;20446;-62
2023/10/13 03:32:47;;;;;;;9.35;5.28;;;;;;;;;;4905319;29;20465;-62
2023/10/13 03:35:24;;;;;;;8.70;5.55;;;;;;;;;;4919603;29;20446;-62
2023/10/13 03:37:53;;;;;;;10.82;6.10;;;;;;;;;;4920140;29;20855;-62
2023/10/13 03:43:09;;;;;;;12.27;5.20;;;;;;;;;;4913756;29;20441;-62
2023/10/13 03:45:38;;;;;;;10.32;6.50;;;;;;;;;;4918691;29;20497;-62
2023/10/13 03:53:56;;;;;;;13.52;6.15;;;;;;;;;;4863833;29;20642;-62
2023/10/13 03:56:38;;;;;;;9.88;6.20;;;;;;;;;;4870919;29;20576;-62
2023/10/13 04:02:11;;;;;;;12.65;5.90;;;;;;;;;;4868907;29;20448;-63
2023/10/13 04:11:38;;;;;;;8.18;5.45;;;;;;;;;;4861514;29;20449;-62
2023/10/13 04:17:46;;;;;;;12.40;5.47;;;;;;;;;;4867062;29;21010;-63
2023/10/13 04:20:26;;;;;;;9.55;5.82;;;;;;;;;;4866945;29;20437;-63
2023/10/13 04:25:38;;;;;;;7.47;5.10;;;;;;;;;;4867926;29;21433;-62
2023/10/13 04:33:35;;;;;;;12.65;5.70;;;;;;;;;;4921259;29;20449;-63
2023/10/13 04:36:36;;;;;;;9.27;5.70;;;;;;;;;;4920666;29;20463;-63
2023/10/13 04:49:28;;;;;;;10.18;5.75;;;;;;;;;;4921343;29;20439;-62
2023/10/13 04:52:15;;;;;;;9.85;5.63;;;;;;;;;;4910705;29;20511;-62
2023/10/13 04:54:59;;;;;;;9.37;5.50;;;;;;;;;;4911612;29;20464;-61
2023/10/13 05:05:21;;;;;;;14.82;5.85;;;;;;;;;;4917661;29;21064;-62
2023/10/13 06:28:41;;;;;;;11.50;5.43;;;;;;;;;;4916524;29;20948;-62
2023/10/13 06:31:20;;;;;;;13.77;5.72;;;;;;;;;;4921981;29;20435;-63
2023/10/13 06:33:49;;;;;;;9.43;5.15;;;;;;;;;;4922807;29;20441;-63
2023/10/13 06:36:19;;;;;;;12.03;5.87;;;;;;;;;;4923666;29;20986;-63
2023/10/13 06:39:34;;;;;;;12.13;5.40;;;;;;;;;;4922997;29;20523;-62
2023/10/13 06:41:45;;;;;;;11.32;5.68;;;;;;;;;;4915986;29;20441;-62
2023/10/13 06:44:15;;;;;;;12.13;5.40;;;;;;;;;;4920885;29;20516;-62
2023/10/13 06:46:46;;;;;;;11.27;5.60;;;;;;;;;;4918783;29;20452;-62
2023/10/13 06:49:15;;;;;;;9.45;5.50;;;;;;;;;;4915707;29;20453;-62
2023/10/13 06:51:46;;;;;;;13.65;5.10;;;;;;;;;;4922294;29;20450;-62
2023/10/13 06:54:20;;;;;;;11.50;5.50;;;;;;;;;;4927192;29;20478;-62
2023/10/13 06:56:52;;;;;;;8.30;4.75;;;;;;;;;;4921717;29;20447;-62
2023/10/13 06:59:26;;;;;;;7.83;5.07;;;;;;;;;;4919435;29;20436;-62
2023/10/13 07:01:53;;;;;;;12.20;6.05;;;;;;;;;;4924577;29;21111;-63
2023/10/13 07:04:21;;;;;;;9.48;5.13;;;;;;;;;;4928126;29;20435;-62
2023/10/13 07:06:49;;;;;;;9.98;5.55;;;;;;;;;;4920289;29;20446;-62
2023/10/13 07:12:06;;;;;;;8.67;5.57;;;;;;;;;;4922618;29;20441;-62
2023/10/13 07:14:34;;;;;;;13.52;5.57;;;;;;;;;;4929202;29;20471;-62
2023/10/13 07:17:04;;;;;;;7.83;5.20;;;;;;;;;;4920375;29;20439;-63
2023/10/13 07:19:33;;;;;;;10.85;5.10;;;;;;;;;;4921909;29;20437;-63
2023/10/13 07:24:49;;;;;;;10.25;5.32;;;;;;;;;;4920278;29;20528;-62
2023/10/13 07:27:28;;;;;;;11.30;5.10;;;;;;;;;;4927582;29;20809;-63
2023/10/13 07:30:06;;;;;;;12.48;5.20;;;;;;;;;;4920247;29;20447;-62
2023/10/13 07:32:33;;;;;;;11.03;5.07;;;;;;;;;;4929237;29;20439;-63
2023/10/13 07:35:06;;;;;;;8.73;4.83;;;;;;;;;;4922573;29;20441;-62
2023/10/13 07:37:33;;;;;;;14.17;5.30;;;;;;;;;;4924467;29;20490;-62
2023/10/13 07:40:21;;;;;;;9.93;5.20;;;;;;;;;;4906266;29;20924;-62
2023/10/13 07:42:49;;;;;;;10.35;4.90;;;;;;;;;;4913660;29;20544;-62
2023/10/13 07:45:24;;;;;;;9.13;4.80;;;;;;;;;;4899385;29;20540;-62
2023/10/13 07:47:52;;;;;;;7.78;4.70;;;;;;;;;;4918870;29;20454;-62
2023/10/13 07:50:25;;;;;;;7.90;5.25;;;;;;;;;;4914535;29;20472;-63
2023/10/13 07:55:40;;;;;;;11.80;5.20;;;;;;;;;;4916762;29;20965;-62
2023/10/13 07:58:12;;;;;;;10.10;5.65;;;;;;;;;;4921101;29;20440;-62
2023/10/13 08:08:37;;;;;;;10.17;5.07;;;;;;;;;;4922329;29;20477;-62
2023/10/13 08:11:11;;;;;;;11.93;5.20;;;;;;;;;;4926365;29;20447;-62
2023/10/13 08:13:46;;;;;;;9.50;4.87;;;;;;;;;;4912963;29;20437;-62
2023/10/13 08:16:45;;;;;;;10.73;5.65;;;;;;;;;;4922024;29;20477;-63
2023/10/13 08:19:17;;;;;;;11.10;5.72;;;;;;;;;;4915327;29;20598;-62
2023/10/13 08:35:10;;;;;;;7.63;5.07;;;;;;;;;;4918040;29;20558;-62
2023/10/13 08:40:42;;;;;;;16.07;6.00;;;;;;;;;;4924253;29;20646;-63
2023/10/13 09:04:22;;;;;;;7.63;4.22;;;;;;;;;;4921722;29;20435;-62
2023/10/13 09:12:14;;;;;;;7.40;4.57;;;;;;;;;;4925890;29;20439;-62
2023/10/13 09:14:46;;;;;;;6.75;4.40;;;;;;;;;;4917896;29;20448;-63
2023/10/13 09:23:07;;;;;;;10.32;4.22;;;;;;;;;;4911354;29;20452;-62
2023/10/13 09:25:38;;;;;;;28.08;25.65;;;;;;;;;;4918108;29;20449;-62
2023/10/13 09:28:15;;;;;;;10.27;4.10;;;;;;;;;;4917912;29;20789;-62
2023/10/13 09:30:46;;;;;;;7.28;4.13;;;;;;;;;;4915914;29;20514;-62
2023/10/13 09:33:16;;;;;;;9.43;4.15;;;;;;;;;;4927175;29;20443;-63
2023/10/13 09:35:49;;;;;;;5.05;3.58;;;;;;;;;;4902294;29;20495;-62
2023/10/13 09:38:17;;;;;;;8.70;3.95;;;;;;;;;;4920976;29;20517;-62
2023/10/13 09:40:50;;;;;;;8.07;3.80;;;;;;;;;;4926512;29;20486;-62
2023/10/13 09:43:19;;;;;;;9.52;3.85;;;;;;;;;;4919750;29;20449;-62
2023/10/13 09:48:40;;;;;;;9.05;3.72;;;;;;;;;;4920140;29;20945;-62
2023/10/13 09:51:13;;;;;;;10.27;3.85;;;;;;;;;;4919427;29;20514;-62
2023/10/13 09:53:41;;;;;;;9.60;4.10;;;;;;;;;;4928073;29;20439;-62
2023/10/13 09:56:29;;;;;;;7.28;3.83;;;;;;;;;;4914104;29;20436;-62
2023/10/13 09:59:08;;;;;;;6.57;3.83;;;;;;;;;;4921575;29;20437;-62
2023/10/13 10:01:39;;;;;;;6.53;3.65;;;;;;;;;;4917646;29;20519;-62
2023/10/13 10:04:08;;;;;;;7.10;3.90;;;;;;;;;;4921081;29;20470;-63
2023/10/13 10:06:43;;;;;;;9.07;3.28;;;;;;;;;;4925867;29;20850;-62
2023/10/13 10:09:13;;;;;;;5.77;3.83;;;;;;;;;;4915511;29;20455;-62
2023/10/13 10:11:56;;;;;;;5.20;3.63;;;;;;;;;;4930303;29;20557;-62
2023/10/13 10:14:26;;;;;;;4.95;3.20;;;;;;;;;;4925742;29;20575;-62
2023/10/13 10:16:59;;;;;;;9.00;3.80;;;;;;;;;;4926072;29;21173;-62
2023/10/13 10:19:35;;;;;;;7.78;3.50;;;;;;;;;;4923129;29;20439;-62
2023/10/13 10:22:10;;;;;;;8.88;3.78;;;;;;;;;;4932571;29;20443;-62
2023/10/13 10:24:38;;;;;;;9.95;3.83;;;;;;;;;;4913290;29;21768;-62
2023/10/13 10:27:06;;;;;;;7.97;4.40;;;;;;;;;;4927823;29;20447;-62
2023/10/13 10:29:36;;;;;;;4.97;3.35;;;;;;;;;;4924696;29;20478;-62
2023/10/13 10:32:13;;;;;;;6.93;4.10;;;;;;;;;;4930211;29;20820;-61
2023/10/13 10:34:41;;;;;;;7.60;3.97;;;;;;;;;;4920935;29;20443;-62
2023/10/13 10:37:09;;;;;;;8.63;4.10;;;;;;;;;;4923990;29;20522;-62
2023/10/13 10:39:45;;;;;;;7.95;3.60;;;;;;;;;;4924926;29;21027;-62
2023/10/13 10:42:23;;;;;;;6.00;3.65;;;;;;;;;;4922988;29;20447;-62
2023/10/13 10:44:55;;;;;;;6.03;3.40;;;;;;;;;;4922187;29;20447;-62
2023/10/13 10:47:32;;;;;;;6.70;3.83;;;;;;;;;;4917277;29;20472;-62
2023/10/13 10:50:08;;;;;;;7.90;4.30;;;;;;;;;;4930204;29;20478;-62
2023/10/13 10:52:39;;;;;;;5.28;3.42;;;;;;;;;;4919459;29;20455;-61
2023/10/13 10:55:07;;;;;;;9.50;6.15;;;;;;;;;;4925199;29;20522;-62
2023/10/13 10:57:38;;;;;;;6.03;3.70;;;;;;;;;;4921382;29;21220;-62
2023/10/13 11:00:14;;;;;;;6.53;3.58;;;;;;;;;;4917552;29;20432;-62
2023/10/13 11:02:41;;;;;;;7.40;3.65;;;;;;;;;;4921995;29;20450;-62
2023/10/13 11:05:09;;;;;;;7.63;6.70;;;;;;;;;;4916461;29;20451;-62
2023/10/13 11:07:37;;;;;;;3.92;3.38;;;;;;;;;;4921482;29;20463;-62
2023/10/13 11:10:11;;;;;;;6.50;3.50;;;;;;;;;;4925899;29;20962;-62
2023/10/13 11:12:53;;;;;;;5.80;3.25;;;;;;;;;;4923088;29;20932;-62
2023/10/13 11:15:33;;;;;;;4.82;3.13;;;;;;;;;;4927369;29;20443;-62
2023/10/13 11:18:05;;;;;;;6.40;3.53;;;;;;;;;;4917178;29;20476;-62
2023/10/13 11:20:44;;;;;;;5.22;3.40;;;;;;;;;;4924139;29;20472;-62
2023/10/13 11:23:15;;;;;;;6.17;3.53;;;;;;;;;;4926713;29;20491;-62
2023/10/13 11:25:45;;;;;;;7.07;3.47;;;;;;;;;;4926038;29;20483;-62
2023/10/13 11:28:20;;;;;;;7.68;3.60;;;;;;;;;;4912688;29;20526;-62
2023/10/13 11:31:10;;;;;;;6.93;3.57;;;;;;;;;;4903062;29;20448;-62
2023/10/13 11:33:56;;;;;;;6.28;3.55;;;;;;;;;;4922529;29;20445;-63
2023/10/13 11:36:27;;;;;;;10.02;4.18;;;;;;;;;;4919434;29;20469;-62
2023/10/13 11:38:57;;;;;;;6.18;3.50;;;;;;;;;;4923607;29;20857;-62
2023/10/13 11:41:33;;;;;;;7.15;3.75;;;;;;;;;;4927659;29;20439;-63
2023/10/13 11:49:17;;;;;;;4.90;3.35;;;;;;;;;;4924933;29;20991;-62
2023/10/13 11:51:51;;;;;;;5.25;3.17;;;;;;;;;;4922602;29;20467;-62
2023/10/13 11:54:18;;;;;;;4.47;3.33;;;;;;;;;;4929159;29;20443;-62
2023/10/13 11:56:46;;;;;;;5.07;2.97;;;;;;;;;;4922743;29;20910;-62
2023/10/13 11:59:17;;;;;;;6.90;3.28;;;;;;;;;;4927396;29;20435;-62
2023/10/13 12:07:19;;;;;;;5.82;3.30;;;;;;;;;;4924105;29;20439;-63
2023/10/13 12:12:24;;;;;;;6.88;3.65;;;;;;;;;;4922620;29;20450;-62
2023/10/13 12:14:57;;;;;;;7.18;3.22;;;;;;;;;;4917320;29;20441;-62
2023/10/13 12:17:31;;;;;;;5.80;3.50;;;;;;;;;;4921277;29;20460;-62
2023/10/13 12:19:59;;;;;;;7.28;3.50;;;;;;;;;;4916378;29;20564;-62
2023/10/13 12:22:28;;;;;;;7.68;3.17;;;;;;;;;;4918306;29;20534;-62
2023/10/13 12:24:56;;;;;;;5.72;3.30;;;;;;;;;;4924022;29;20435;-62
2023/10/13 12:27:35;;;;;;;6.82;3.13;;;;;;;;;;4922624;29;20790;-63
2023/10/13 12:30:13;;;;;;;6.32;3.30;;;;;;;;;;4929434;29;20443;-62
2023/10/13 12:32:54;;;;;;;6.03;3.40;;;;;;;;;;4922226;29;20502;-62
2023/10/13 12:35:29;;;;;;;5.50;2.90;;;;;;;;;;4926332;29;20440;-62
2023/10/13 12:38:05;;;;;;;3.45;3.05;;;;;;;;;;4919087;29;20539;-62
2023/10/13 12:49:48;;;;;;;6.97;2.60;;;;;;;;;;4927686;29;20571;-62
2023/10/13 12:51:51;;;;;;;4.10;2.70;;;;;;;;;;4915782;29;20480;-63
2023/10/13 12:54:23;;;;;;;4.05;2.78;;;;;;;;;;4925343;29;20439;-63
2023/10/13 12:56:56;;;;;;;4.28;3.03;;;;;;;;;;4926018;29;20528;-62
2023/10/13 12:59:27;;;;;;;5.57;2.90;;;;;;;;;;4900359;29;20891;-62
2023/10/13 13:01:54;;;;;;;4.40;2.72;;;;;;;;;;4915727;29;20480;-63
2023/10/13 13:04:21;;;;;;;5.53;2.70;;;;;;;;;;4921906;29;20500;-62
2023/10/13 13:06:50;;;;;;;4.95;2.70;;;;;;;;;;4920031;29;20534;-62
2023/10/13 13:09:26;;;;;;;4.13;2.92;;;;;;;;;;4919254;29;20495;-63
2023/10/13 13:11:57;;;;;;;5.93;2.80;;;;;;;;;;4921125;29;20445;-63
2023/10/13 13:14:34;;;;;;;6.78;2.90;;;;;;;;;;4923703;29;20456;-63
2023/10/13 13:17:06;;;;;;;5.22;2.60;;;;;;;;;;4918711;29;20443;-62
2023/10/13 13:19:40;;;;;;;6.07;2.60;;;;;;;;;;4925511;29;20436;-63
2023/10/13 13:22:11;;;;;;;6.53;2.97;;;;;;;;;;4911887;29;20449;-63
2023/10/13 13:24:46;;;;;;;4.30;3.17;;;;;;;;;;4924452;29;20460;-63
2023/10/13 13:27:14;;;;;;;5.45;3.03;;;;;;;;;;4913962;29;20958;-63
2023/10/13 13:29:42;;;;;;;4.32;2.97;;;;;;;;;;4914517;29;20449;-63
2023/10/13 13:32:24;;;;;;;5.47;3.15;;;;;;;;;;4927471;29;20942;-63
2023/10/13 13:35:04;;;;;;;5.45;2.90;;;;;;;;;;4919129;29;20471;-63
2023/10/13 13:37:32;;;;;;;6.72;2.90;;;;;;;;;;4921693;29;20444;-63
2023/10/13 13:40:14;;;;;;;4.95;3.33;;;;;;;;;;4927086;29;20518;-63
2023/10/13 13:42:45;;;;;;;4.28;3.13;;;;;;;;;;4920787;29;20462;-63
2023/10/13 13:45:27;;;;;;;5.13;2.88;;;;;;;;;;4911708;29;20455;-63
2023/10/13 13:47:54;;;;;;;4.13;2.80;;;;;;;;;;4921420;29;20469;-63
2023/10/13 13:50:29;;;;;;;5.05;2.75;;;;;;;;;;4921422;29;20447;-63
2023/10/13 13:52:57;;;;;;;5.60;2.83;;;;;;;;;;4909935;29;20527;-62
2023/10/13 13:55:28;;;;;;;9.90;3.10;;;;;;;;;;4924414;29;20990;-63
2023/10/13 13:57:56;;;;;;;4.28;2.63;;;;;;;;;;4920894;29;20502;-63
2023/10/13 14:00:37;;;;;;;11.32;3.22;;;;;;;;;;4920351;29;20476;-63
2023/10/13 14:05:54;;;;;;;6.30;3.17;;;;;;;;;;4924688;29;20526;-63
2023/10/13 14:08:21;;;;;;;4.35;3.10;;;;;;;;;;4926440;29;20435;-63
2023/10/13 14:11:13;;;;;;;4.03;2.83;;;;;;;;;;4927256;29;21030;-63
2023/10/13 14:13:55;;;;;;;6.50;2.97;;;;;;;;;;4922286;29;20799;-63
2023/10/13 14:16:23;;;;;;;5.40;3.20;;;;;;;;;;4921441;29;20437;-63
2023/10/13 14:18:51;;;;;;;4.30;2.95;;;;;;;;;;4926418;29;20475;-63
2023/10/13 14:21:18;;;;;;;8.40;2.73;;;;;;;;;;4922892;29;20431;-63
2023/10/13 14:23:47;;;;;;;4.93;2.80;;;;;;;;;;4920692;29;20940;-63
2023/10/13 14:26:15;;;;;;;7.80;2.60;;;;;;;;;;4921393;29;20474;-63
2023/10/13 14:29:01;;;;;;;5.45;2.65;;;;;;;;;;4919656;29;20985;-63
2023/10/13 14:31:39;;;;;;;4.30;2.50;;;;;;;;;;4916004;29;21044;-63
2023/10/13 14:34:06;;;;;;;7.97;2.65;;;;;;;;;;4923646;29;20578;-62
2023/10/13 14:36:37;;;;;;;3.58;2.53;;;;;;;;;;4911940;29;20530;-63
2023/10/13 14:39:09;;;;;;;4.55;2.60;;;;;;;;;;4893948;29;20452;-63
2023/10/13 14:41:40;;;;;;;7.25;2.75;;;;;;;;;;4917760;29;20808;-63
2023/10/13 14:44:07;;;;;;;12.40;9.88;;;;;;;;;;4916126;29;20472;-63
2023/10/13 14:46:39;;;;;;;6.93;2.50;;;;;;;;;;4908777;29;20453;-62
2023/10/13 14:49:07;;;;;;;5.13;2.50;;;;;;;;;;4918825;29;20449;-63
2023/10/13 14:51:39;;;;;;;6.32;2.63;;;;;;;;;;4918110;29;20451;-62
2023/10/13 14:54:14;;;;;;;8.97;2.70;;;;;;;;;;4917739;29;20445;-63
2023/10/13 14:56:42;;;;;;;6.80;2.50;;;;;;;;;;4921394;29;20527;-63
2023/10/13 14:59:17;;;;;;;5.80;2.70;;;;;;;;;;4927907;29;21029;-62
2023/10/13 15:01:44;;;;;;;3.17;2.13;;;;;;;;;;4928354;29;20435;-63
2023/10/13 15:04:11;;;;;;;7.72;2.30;;;;;;;;;;4924815;29;20445;-62
2023/10/13 15:06:39;;;;;;;5.75;2.60;;;;;;;;;;4917935;29;21009;-63
2023/10/13 15:09:10;;;;;;;7.97;2.83;;;;;;;;;;4924225;29;20534;-62
2023/10/13 15:11:38;;;;;;;4.88;2.35;;;;;;;;;;4922976;29;20484;-63
2023/10/13 15:14:16;;;;;;;6.60;2.80;;;;;;;;;;4901279;29;20449;-63
2023/10/13 15:16:43;;;;;;;5.95;2.28;;;;;;;;;;4921894;29;20441;-62
2023/10/13 15:19:12;;;;;;;8.32;2.47;;;;;;;;;;4919942;29;20522;-62
2023/10/13 15:21:40;;;;;;;4.90;2.67;;;;;;;;;;4926960;29;20519;-62
2023/10/13 15:24:14;;;;;;;5.38;2.42;;;;;;;;;;4925921;29;20443;-62
2023/10/13 15:26:47;;;;;;;6.80;2.15;;;;;;;;;;4921707;28;20439;-62
2023/10/13 15:29:18;;;;;;;6.80;2.50;;;;;;;;;;4919980;29;20441;-62
2023/10/13 15:34:29;;;;;;;3.80;2.20;;;;;;;;;;4921648;29;20433;-62
2023/10/13 15:36:57;;;;;;;5.30;2.22;;;;;;;;;;4916445;29;20924;-62
2023/10/13 15:39:24;;;;;;;3.95;2.28;;;;;;;;;;4917890;29;20436;-62
2023/10/13 15:41:58;;;;;;;4.22;2.28;;;;;;;;;;4913294;29;20445;-62
2023/10/13 15:44:29;;;;;;;6.07;2.58;;;;;;;;;;4913683;29;20532;-61
2023/10/13 15:46:59;;;;;;;5.60;2.50;;;;;;;;;;4919396;29;20480;-61
2023/10/13 15:49:32;;;;;;;4.80;2.33;;;;;;;;;;4916275;28;20908;-62
2023/10/13 15:51:59;;;;;;;4.93;2.50;;;;;;;;;;4920132;29;20444;-61
2023/10/13 15:54:26;;;;;;;3.80;2.22;;;;;;;;;;4921186;29;20443;-62
2023/10/13 15:56:57;;;;;;;3.50;2.00;;;;;;;;;;4923460;29;20439;-61
2023/10/13 15:59:24;;;;;;;4.00;2.05;;;;;;;;;;4926313;29;20527;-61
2023/10/13 16:01:57;;;;;;;4.38;2.38;;;;;;;;;;4923677;29;20433;-61
2023/10/13 16:04:25;;;;;;;6.47;2.43;;;;;;;;;;4923632;29;20502;-62
2023/10/13 16:06:53;;;;;;;7.45;2.65;;;;;;;;;;4921741;29;20912;-61
2023/10/13 16:09:23;;;;;;;4.50;2.10;;;;;;;;;;4918719;29;20502;-61
2023/10/13 16:11:52;;;;;;;7.97;2.30;;;;;;;;;;4925976;29;20504;-62
2023/10/13 16:14:20;;;;;;;4.60;2.90;;;;;;;;;;4929549;29;20749;-61
2023/10/13 16:16:49;;;;;;;7.18;2.50;;;;;;;;;;4925641;29;20537;-62
2023/10/13 16:19:17;;;;;;;8.63;2.50;;;;;;;;;;4928303;29;20443;-61
2023/10/13 16:21:46;;;;;;;7.72;2.53;;;;;;;;;;4925542;29;20443;-61
2023/10/13 16:24:17;;;;;;;6.10;2.75;;;;;;;;;;4918508;29;20452;-61
2023/10/13 16:26:58;;;;;;;8.32;2.60;;;;;;;;;;4915549;29;20437;-61
2023/10/13 16:29:30;;;;;;;4.35;2.38;;;;;;;;;;4915312;29;20670;-61
2023/10/13 16:31:59;;;;;;;5.88;2.70;;;;;;;;;;4904138;29;20475;-61
2023/10/13 16:34:26;;;;;;;6.60;2.95;;;;;;;;;;4923098;29;20441;-61
2023/10/13 16:36:55;;;;;;;9.23;2.70;;;;;;;;;;4913520;29;20443;-61
2023/10/13 16:39:22;;;;;;;5.65;2.60;;;;;;;;;;4918866;29;20451;-61
2023/10/13 16:41:52;;;;;;;5.28;2.33;;;;;;;;;;4919571;29;20439;-61
2023/10/13 16:44:22;;;;;;;9.80;2.80;;;;;;;;;;4924178;29;20525;-61
2023/10/13 16:46:59;;;;;;;4.60;2.80;;;;;;;;;;4928122;29;20475;-64
2023/10/13 16:49:28;;;;;;;7.25;2.42;;;;;;;;;;4900996;29;20440;-62
2023/10/13 16:52:00;;;;;;;4.60;2.53;;;;;;;;;;4917567;29;20446;-62
2023/10/13 16:54:30;;;;;;;4.27;2.40;;;;;;;;;;4920459;29;20492;-62
2023/10/13 16:56:57;;;;;;;4.63;2.47;;;;;;;;;;4912272;29;21141;-62
2023/10/13 16:59:26;;;;;;;5.05;2.35;;;;;;;;;;4914524;29;20635;-62
2023/10/13 17:01:53;;;;;;;7.27;2.83;;;;;;;;;;4925303;29;20721;-62
2023/10/13 17:04:21;;;;;;;8.00;2.47;;;;;;;;;;4925374;29;20535;-62
2023/10/13 17:06:54;;;;;;;8.43;2.50;;;;;;;;;;4903848;29;20889;-62
2023/10/13 17:09:22;;;;;;;5.00;2.73;;;;;;;;;;4916518;29;20442;-61
2023/10/13 17:11:49;;;;;;;3.63;2.25;;;;;;;;;;4917098;29;20435;-61
2023/10/13 17:14:16;;;;;;;7.65;2.83;;;;;;;;;;4905826;29;20787;-61
2023/10/13 17:16:49;;;;;;;3.45;2.47;;;;;;;;;;4914417;29;20531;-61
2023/10/13 17:19:19;;;;;;;6.97;2.60;;;;;;;;;;4917456;29;20799;-61
2023/10/13 17:21:48;;;;;;;9.95;2.78;;;;;;;;;;4915880;29;21152;-61
2023/10/13 17:24:16;;;;;;;4.07;2.50;;;;;;;;;;4912419;29;20603;-61
2023/10/13 17:26:49;;;;;;;7.80;3.10;;;;;;;;;;4914532;29;20433;-61
2023/10/13 17:29:22;;;;;;;7.80;2.67;;;;;;;;;;4921156;29;20446;-61
2023/10/13 17:31:49;;;;;;;7.15;2.38;;;;;;;;;;4913902;29;20452;-61
2023/10/13 17:34:17;;;;;;;6.28;2.38;;;;;;;;;;4906847;29;21108;-61
2023/10/13 17:36:48;;;;;;;11.43;2.80;;;;;;;;;;4920001;29;20800;-61
2023/10/13 17:39:19;;;;;;;8.10;2.92;;;;;;;;;;4918529;29;20436;-61
2023/10/13 17:41:49;;;;;;;5.30;2.30;;;;;;;;;;4918502;29;20526;-61
2023/10/13 17:44:22;;;;;;;4.47;2.20;;;;;;;;;;4925959;29;20439;-61
2023/10/13 17:46:49;;;;;;;9.65;2.55;;;;;;;;;;4926414;29;20475;-61
2023/10/13 17:49:18;;;;;;;6.95;2.17;;;;;;;;;;4928104;29;20428;-61
2023/10/13 17:51:45;;;;;;;9.57;2.60;;;;;;;;;;4919419;29;20442;-62
2023/10/13 17:54:13;;;;;;;4.67;2.27;;;;;;;;;;4922937;29;20867;-61
2023/10/13 17:56:41;;;;;;;7.95;2.40;;;;;;;;;;4917994;29;20518;-61
2023/10/13 17:59:08;;;;;;;8.02;2.40;;;;;;;;;;4918161;29;20493;-61
2023/10/13 18:01:35;;;;;;;5.85;2.47;;;;;;;;;;4921754;29;21017;-62
2023/10/13 18:04:09;;;;;;;5.22;2.40;;;;;;;;;;4907505;29;20443;-61
2023/10/13 18:06:39;;;;;;;4.00;2.25;;;;;;;;;;4918185;29;20506;-61
2023/10/13 18:09:11;;;;;;;12.65;2.50;;;;;;;;;;4917170;29;20463;-61
2023/10/13 18:11:42;;;;;;;11.73;2.93;;;;;;;;;;4921705;29;20441;-61
2023/10/13 18:14:11;;;;;;;5.25;2.20;;;;;;;;;;4924380;29;20523;-61
2023/10/13 18:16:49;;;;;;;3.30;2.10;;;;;;;;;;4926838;29;20474;-61
2023/10/13 18:19:20;;;;;;;6.50;2.63;;;;;;;;;;4911012;29;20497;-61
2023/10/13 18:21:48;;;;;;;4.70;2.53;;;;;;;;;;4917130;29;20450;-61
2023/10/13 18:24:15;;;;;;;5.05;2.10;;;;;;;;;;4924713;29;20510;-61
2023/10/13 18:26:45;;;;;;;3.78;2.20;;;;;;;;;;4913121;29;20452;-61
2023/10/13 18:29:12;;;;;;;9.07;2.60;;;;;;;;;;4922924;29;20499;-61
2023/10/13 18:31:41;;;;;;;6.78;2.53;;;;;;;;;;4920904;29;20605;-61
2023/10/13 18:34:11;;;;;;;8.98;2.50;;;;;;;;;;4925893;29;20925;-61
2023/10/13 18:36:38;;;;;;;7.40;2.60;;;;;;;;;;4917007;29;20475;-61
2023/10/13 18:39:18;;;;;;;6.57;2.50;;;;;;;;;;4927714;29;20501;-61
2023/10/13 18:41:48;;;;;;;4.35;2.63;;;;;;;;;;4920534;29;20480;-61
2023/10/13 18:44:16;;;;;;;5.88;2.33;;;;;;;;;;4918901;29;20448;-61
2023/10/13 18:46:43;;;;;;;5.10;2.42;;;;;;;;;;4933669;29;20538;-61
2023/10/13 18:49:11;;;;;;;4.72;2.15;;;;;;;;;;4930130;29;20446;-61
2023/10/13 18:51:38;;;;;;;6.30;2.38;;;;;;;;;;4923673;29;20454;-61
2023/10/13 18:54:07;;;;;;;7.82;2.40;;;;;;;;;;4921418;29;20786;-61
2023/10/13 18:56:42;;;;;;;4.93;2.15;;;;;;;;;;4921700;29;20553;-61
2023/10/13 18:59:09;;;;;;;5.55;2.10;;;;;;;;;;4924667;29;20876;-61
2023/10/13 19:01:38;;;;;;;4.32;2.47;;;;;;;;;;4926429;29;20435;-61
2023/10/13 19:04:12;;;;;;;11.00;2.80;;;;;;;;;;4918569;29;20449;-61